Time;durP1;ratioP1;P1;durP2;ratioP2;P2;SDS_P1;SDS_P2;PMS_P1;PMS_P2;Temp;Humidity;BMP_temperature;BMP_pressure;BME280_temperature;BME280_humidity;BME280_pressure;Samples;Min_cycle;Max_cycle;Signal;HPM_P1;HPM_P2
2022/07/02 00:01:50;;;;;;;6.30;4.97;;;15.20;99.90;;;;;;5063567;28;20036;-46
2022/07/02 00:04:19;;;;;;;5.95;4.38;;;15.10;99.90;;;;;;5087243;28;20036;-44
2022/07/02 00:06:47;;;;;;;6.60;4.78;;;15.10;99.90;;;;;;5069828;28;20024;-50
2022/07/02 00:09:13;;;;;;;9.85;4.82;;;15.10;99.90;;;;;;5085723;28;20081;-44
2022/07/02 00:11:41;;;;;;;5.45;4.95;;;15.00;99.90;;;;;;5067178;28;20400;-46
2022/07/02 00:14:08;;;;;;;5.63;5.07;;;14.90;99.90;;;;;;5082162;28;20035;-45
2022/07/02 00:16:34;;;;;;;4.93;4.15;;;14.90;99.90;;;;;;5074777;28;20029;-44
2022/07/02 00:19:00;;;;;;;6.93;5.15;;;14.80;99.90;;;;;;5079924;28;20036;-47
2022/07/02 00:21:25;;;;;;;5.55;4.95;;;14.80;99.90;;;;;;5067131;28;20031;-43
2022/07/02 00:23:51;;;;;;;5.93;5.07;;;14.70;99.90;;;;;;5075016;28;20430;-43
2022/07/02 00:26:25;;;;;;;5.28;4.78;;;14.60;99.90;;;;;;5072366;28;20024;-48
2022/07/02 00:29:00;;;;;;;7.05;5.32;;;14.50;99.90;;;;;;5086695;28;20100;-50
2022/07/02 00:31:27;;;;;;;4.75;4.18;;;14.50;99.90;;;;;;5106987;28;20051;-49
2022/07/02 00:33:53;;;;;;;5.85;4.93;;;14.40;99.90;;;;;;5108566;28;20012;-48
2022/07/02 00:36:22;;;;;;;6.35;5.75;;;14.30;99.90;;;;;;5092240;28;20034;-44
2022/07/02 00:38:49;;;;;;;5.85;4.68;;;14.30;99.90;;;;;;5108836;28;20550;-43
2022/07/02 00:41:17;;;;;;;6.75;6.05;;;14.20;99.90;;;;;;5106985;28;20023;-43
2022/07/02 00:43:44;;;;;;;8.60;5.10;;;14.10;99.90;;;;;;5088710;28;20403;-44
2022/07/02 00:46:12;;;;;;;6.32;4.90;;;14.10;99.90;;;;;;5067848;28;20174;-43
2022/07/02 00:48:39;;;;;;;6.05;5.30;;;14.10;99.90;;;;;;5108401;28;20024;-46
2022/07/02 00:51:04;;;;;;;6.05;4.45;;;14.00;99.90;;;;;;5068506;28;20036;-44
2022/07/02 00:53:30;;;;;;;7.05;5.00;;;13.90;99.90;;;;;;5107604;28;20047;-42
2022/07/02 00:55:57;;;;;;;8.02;5.32;;;13.80;99.90;;;;;;5071998;28;20111;-45
2022/07/02 00:58:22;;;;;;;6.03;5.25;;;13.80;99.90;;;;;;5108816;28;20080;-44
2022/07/02 01:00:48;;;;;;;7.30;5.20;;;13.80;99.90;;;;;;5067125;28;20430;-42
2022/07/02 01:03:17;;;;;;;7.53;5.78;;;13.80;99.90;;;;;;5107462;28;20047;-43
2022/07/02 01:05:44;;;;;;;5.43;4.93;;;13.70;99.90;;;;;;5071107;28;20040;-43
2022/07/02 01:10:55;;;;;;;7.72;4.80;;;13.60;99.90;;;;;;5066264;28;20067;-44
2022/07/02 01:13:22;;;;;;;5.90;5.20;;;13.50;99.90;;;;;;5107479;28;20740;-44
2022/07/02 01:15:48;;;;;;;6.97;5.47;;;13.40;99.90;;;;;;5094130;28;20035;-44
2022/07/02 01:18:17;;;;;;;6.03;4.85;;;13.40;99.90;;;;;;5088257;28;20051;-49
2022/07/02 01:20:44;;;;;;;7.63;5.40;;;13.30;99.90;;;;;;5100362;28;20028;-45
2022/07/02 01:23:09;;;;;;;7.45;6.03;;;13.30;99.90;;;;;;5104430;28;20032;-48
2022/07/02 01:25:35;;;;;;;6.22;5.43;;;13.20;99.90;;;;;;5072389;28;20054;-45
2022/07/02 01:28:00;;;;;;;5.93;4.85;;;13.20;99.90;;;;;;5090102;28;20050;-44
2022/07/02 01:30:26;;;;;;;6.30;5.32;;;13.20;99.90;;;;;;5106596;28;20735;-44
2022/07/02 01:32:52;;;;;;;8.27;4.78;;;13.10;99.90;;;;;;5110014;28;20114;-48
2022/07/02 01:35:17;;;;;;;6.10;5.10;;;13.10;99.90;;;;;;5078405;28;20524;-48
2022/07/02 01:37:43;;;;;;;8.95;5.80;;;13.00;99.90;;;;;;5110897;28;20034;-46
2022/07/02 01:40:09;;;;;;;8.20;6.55;;;13.00;99.90;;;;;;5100824;28;20041;-49
2022/07/02 01:42:36;;;;;;;6.32;5.72;;;12.90;99.90;;;;;;5091919;28;20036;-48
2022/07/02 01:45:02;;;;;;;5.78;5.18;;;12.90;99.90;;;;;;5109168;28;20062;-43
2022/07/02 01:47:27;;;;;;;11.52;5.60;;;12.90;99.90;;;;;;5092139;28;20472;-49
2022/07/02 01:49:53;;;;;;;7.68;5.10;;;12.90;99.90;;;;;;5108981;28;20198;-48
2022/07/02 01:52:18;;;;;;;6.25;5.68;;;12.80;99.90;;;;;;5091912;28;20452;-49
2022/07/02 01:54:45;;;;;;;6.22;5.63;;;12.80;99.90;;;;;;5108774;28;20039;-46
2022/07/02 01:57:12;;;;;;;6.85;5.88;;;12.70;99.90;;;;;;5111808;28;20019;-43
2022/07/02 01:59:38;;;;;;;6.30;5.40;;;12.70;99.90;;;;;;5088796;28;20539;-45
2022/07/02 02:02:04;;;;;;;7.30;5.85;;;12.70;99.90;;;;;;5111786;28;20015;-46
2022/07/02 02:04:31;;;;;;;5.88;5.28;;;12.70;99.90;;;;;;5094817;28;20110;-43
2022/07/02 02:06:56;;;;;;;6.90;5.40;;;12.70;99.90;;;;;;5111468;28;20631;-43
2022/07/02 02:09:22;;;;;;;7.38;5.95;;;12.60;99.90;;;;;;5092438;28;20119;-45
2022/07/02 02:11:47;;;;;;;7.45;5.72;;;12.60;99.90;;;;;;5111456;28;20111;-46
2022/07/02 02:14:13;;;;;;;5.90;5.18;;;12.60;99.90;;;;;;5092475;28;20164;-42
2022/07/02 02:16:39;;;;;;;7.32;6.10;;;12.50;99.90;;;;;;5111386;28;20028;-42
2022/07/02 02:19:06;;;;;;;7.55;5.88;;;12.50;99.90;;;;;;5091222;28;20036;-41
2022/07/02 02:21:32;;;;;;;8.27;6.22;;;12.60;99.90;;;;;;5109067;28;20024;-41
2022/07/02 02:23:58;;;;;;;7.28;6.13;;;12.60;99.90;;;;;;5090061;28;20047;-44
2022/07/02 02:26:24;;;;;;;10.18;6.72;;;12.50;99.90;;;;;;5100794;28;20032;-43
2022/07/02 02:28:50;;;;;;;6.88;5.47;;;12.50;99.90;;;;;;5099647;28;20519;-46
2022/07/02 02:31:16;;;;;;;7.32;6.38;;;12.50;99.90;;;;;;5094293;28;20106;-44
2022/07/02 02:33:41;;;;;;;9.27;5.85;;;12.50;99.90;;;;;;5111217;28;20050;-42
2022/07/02 02:36:07;;;;;;;6.82;6.05;;;12.50;99.90;;;;;;5093251;28;20102;-42
2022/07/02 02:38:36;;;;;;;6.72;6.03;;;12.50;99.90;;;;;;5110944;28;20076;-42
2022/07/02 02:41:05;;;;;;;8.43;6.03;;;12.50;99.90;;;;;;5070781;28;20041;-46
2022/07/02 02:43:33;;;;;;;7.22;5.85;;;12.40;99.90;;;;;;5109944;28;20028;-42
2022/07/02 02:45:59;;;;;;;6.30;5.57;;;12.40;99.90;;;;;;5070905;28;20037;-45
2022/07/02 02:48:24;;;;;;;6.25;5.32;;;12.40;99.90;;;;;;5109759;28;20023;-43
2022/07/02 02:50:50;;;;;;;10.43;6.20;;;12.40;99.90;;;;;;5072571;28;20070;-48
2022/07/02 02:53:15;;;;;;;9.63;6.28;;;12.40;99.90;;;;;;5109625;28;20565;-49
2022/07/02 02:55:41;;;;;;;7.25;6.55;;;12.40;99.90;;;;;;5073587;28;20042;-43
2022/07/02 02:58:06;;;;;;;7.85;5.90;;;12.40;99.90;;;;;;5109066;28;20389;-48
2022/07/02 03:00:32;;;;;;;7.82;6.32;;;12.40;99.90;;;;;;5071187;28;20111;-43
2022/07/02 03:02:57;;;;;;;8.05;7.07;;;12.40;99.90;;;;;;5109277;28;20030;-46
2022/07/02 03:05:23;;;;;;;6.47;5.57;;;12.40;99.90;;;;;;5076037;28;20480;-42
2022/07/02 03:07:48;;;;;;;8.48;6.55;;;12.40;99.90;;;;;;5108988;28;20486;-45
2022/07/02 03:10:14;;;;;;;8.02;6.05;;;12.40;99.90;;;;;;5077269;28;20073;-44
2022/07/02 03:12:39;;;;;;;6.43;5.70;;;12.40;99.90;;;;;;5108942;28;20161;-46
2022/07/02 03:15:05;;;;;;;8.80;6.15;;;12.40;99.90;;;;;;5098439;28;20028;-47
2022/07/02 03:17:31;;;;;;;7.72;6.10;;;12.40;99.90;;;;;;5090444;28;20024;-49
2022/07/02 03:19:56;;;;;;;8.32;6.40;;;12.40;99.90;;;;;;5107290;28;20031;-44
2022/07/02 03:22:22;;;;;;;6.90;6.20;;;12.40;99.90;;;;;;5090284;28;20082;-42
2022/07/02 03:24:47;;;;;;;7.57;6.35;;;12.40;99.90;;;;;;5107131;28;20542;-47
2022/07/02 03:27:13;;;;;;;6.85;6.13;;;12.50;99.90;;;;;;5089967;28;20111;-50
2022/07/02 03:29:38;;;;;;;7.35;6.07;;;12.60;99.90;;;;;;5106828;28;20051;-48
2022/07/02 03:32:04;;;;;;;8.25;6.93;;;12.60;99.90;;;;;;5110136;28;20426;-49
2022/07/02 03:34:30;;;;;;;8.57;6.97;;;12.70;99.90;;;;;;5093248;28;20040;-46
2022/07/02 03:36:55;;;;;;;10.13;7.82;;;12.70;99.90;;;;;;5110004;28;20031;-44
2022/07/02 03:39:21;;;;;;;7.05;5.30;;;12.80;99.90;;;;;;5091879;28;20027;-44
2022/07/02 03:41:46;;;;;;;8.00;6.90;;;13.00;99.90;;;;;;5109910;28;20376;-49
2022/07/02 03:44:12;;;;;;;9.05;6.80;;;13.20;99.90;;;;;;5090574;28;20449;-50
2022/07/02 03:46:37;;;;;;;8.35;5.70;;;13.60;99.90;;;;;;5109751;28;20098;-45
2022/07/02 03:49:03;;;;;;;6.32;5.65;;;14.20;99.90;;;;;;5089384;28;20039;-50
2022/07/02 03:51:29;;;;;;;6.47;5.18;;;14.80;99.90;;;;;;5109840;28;20388;-48
2022/07/02 03:53:54;;;;;;;8.52;6.78;;;15.40;99.90;;;;;;5087991;28;20661;-51
2022/07/02 03:56:20;;;;;;;5.28;4.78;;;16.10;99.90;;;;;;5109389;28;20098;-44
2022/07/02 03:58:45;;;;;;;5.15;4.65;;;16.70;99.90;;;;;;5089728;28;20031;-48
2022/07/02 04:01:11;;;;;;;5.07;4.57;;;17.20;99.90;;;;;;5064090;28;20412;-47
2022/07/02 04:03:36;;;;;;;4.68;4.28;;;17.70;99.90;;;;;;5108030;28;20023;-45
2022/07/02 04:06:02;;;;;;;5.85;5.13;;;18.30;99.90;;;;;;5069566;28;20028;-44
2022/07/02 04:08:28;;;;;;;4.40;4.03;;;18.80;97.50;;;;;;5108214;28;20376;-44
2022/07/02 04:10:53;;;;;;;5.65;4.95;;;19.20;95.10;;;;;;5070634;28;20032;-45
2022/07/02 04:13:19;;;;;;;6.45;5.00;;;19.70;94.60;;;;;;5107906;28;20031;-49
2022/07/02 04:15:45;;;;;;;5.68;5.18;;;20.20;93.00;;;;;;5071754;28;20389;-45
2022/07/02 04:18:10;;;;;;;5.30;4.40;;;20.60;90.90;;;;;;5107947;28;20396;-46
2022/07/02 04:20:36;;;;;;;5.47;4.97;;;21.00;89.60;;;;;;5073014;28;20102;-44
2022/07/02 04:23:01;;;;;;;4.80;4.28;;;21.40;85.20;;;;;;5107985;28;20076;-46
2022/07/02 04:25:28;;;;;;;4.72;4.32;;;21.80;83.50;;;;;;5074271;28;20492;-44
2022/07/02 04:27:54;;;;;;;4.30;3.95;;;22.20;77.50;;;;;;5105253;28;20041;-46
2022/07/02 04:30:19;;;;;;;6.72;4.05;;;22.60;75.70;;;;;;5096501;28;20152;-45
2022/07/02 04:32:45;;;;;;;4.95;3.58;;;23.00;72.30;;;;;;5109208;28;20032;-43
2022/07/02 04:35:10;;;;;;;4.75;4.30;;;23.40;69.80;;;;;;5087700;28;20035;-47
2022/07/02 04:37:36;;;;;;;5.18;4.25;;;23.80;65.70;;;;;;5109338;28;20673;-42
2022/07/02 04:40:01;;;;;;;4.80;4.38;;;24.20;61.60;;;;;;5089359;28;20039;-47
2022/07/02 04:42:27;;;;;;;4.68;4.28;;;24.60;59.20;;;;;;5106763;28;20106;-44
2022/07/02 04:44:52;;;;;;;4.03;3.60;;;24.90;55.50;;;;;;5089289;28;20058;-43
2022/07/02 04:47:18;;;;;;;5.03;3.90;;;25.20;52.20;;;;;;5069592;28;20060;-45
2022/07/02 04:49:43;;;;;;;3.72;3.42;;;25.70;50.80;;;;;;5107704;28;20028;-42
2022/07/02 04:52:09;;;;;;;3.92;3.28;;;26.00;47.50;;;;;;5070428;28;20056;-42
2022/07/02 04:54:34;;;;;;;3.83;3.53;;;26.40;47.00;;;;;;5107799;28;20518;-42
2022/07/02 04:57:00;;;;;;;3.05;2.85;;;26.60;42.90;;;;;;5071588;28;20021;-42
2022/07/02 04:59:25;;;;;;;3.50;3.20;;;26.90;40.80;;;;;;5104717;28;20037;-42
2022/07/02 05:01:51;;;;;;;4.00;3.60;;;27.20;39.20;;;;;;5068505;28;20024;-42
2022/07/02 05:04:17;;;;;;;3.78;3.35;;;27.60;37.70;;;;;;5107841;28;20427;-49
2022/07/02 05:06:43;;;;;;;3.95;3.40;;;27.90;35.70;;;;;;5073492;28;20067;-43
2022/07/02 05:09:08;;;;;;;4.00;3.20;;;28.30;32.50;;;;;;5093577;28;20452;-44
2022/07/02 05:11:34;;;;;;;5.15;3.55;;;28.70;30.00;;;;;;5092414;28;20028;-50
2022/07/02 05:13:59;;;;;;;3.33;3.05;;;29.20;28.20;;;;;;5109956;28;20050;-47
2022/07/02 05:16:25;;;;;;;4.93;3.38;;;29.60;26.00;;;;;;5092491;28;20110;-48
2022/07/02 05:18:50;;;;;;;3.65;3.35;;;30.00;23.80;;;;;;5109723;28;20515;-45
2022/07/02 05:21:16;;;;;;;5.03;3.15;;;30.50;22.70;;;;;;5091783;28;20020;-44
2022/07/02 05:23:41;;;;;;;2.55;2.35;;;30.70;19.60;;;;;;5077710;28;20189;-49
2022/07/02 05:26:07;;;;;;;3.70;3.40;;;31.00;18.70;;;;;;5091732;28;20023;-47
2022/07/02 05:28:33;;;;;;;3.30;3.00;;;31.30;17.20;;;;;;5081733;28;20572;-49
2022/07/02 05:30:58;;;;;;;3.03;2.83;;;31.70;16.10;;;;;;5070250;28;20071;-50
2022/07/02 05:33:24;;;;;;;3.97;2.83;;;32.10;15.10;;;;;;5069045;28;20123;-51
2022/07/02 05:35:51;;;;;;;4.45;2.60;;;32.30;13.80;;;;;;5083532;28;20044;-47
2022/07/02 05:38:17;;;;;;;2.90;2.70;;;32.40;12.60;;;;;;5074504;28;20028;-49
2022/07/02 05:40:43;;;;;;;4.45;2.65;;;32.60;11.60;;;;;;5084981;28;20090;-49
2022/07/02 05:43:08;;;;;;;3.42;3.13;;;32.90;11.70;;;;;;5076448;28;20036;-45
2022/07/02 05:45:34;;;;;;;3.20;2.83;;;33.00;10.40;;;;;;5083284;28;20082;-48
2022/07/02 05:47:59;;;;;;;2.65;2.45;;;33.20;9.10;;;;;;5074340;28;20028;-51
2022/07/02 05:50:25;;;;;;;2.70;2.50;;;33.50;8.40;;;;;;5084266;28;20027;-50
2022/07/02 05:52:50;;;;;;;3.10;2.75;;;33.70;7.50;;;;;;5073759;28;20219;-52
2022/07/02 05:55:16;;;;;;;4.15;2.60;;;34.10;6.80;;;;;;5069233;28;20432;-50
2022/07/02 05:57:41;;;;;;;2.70;2.35;;;34.30;6.00;;;;;;5071578;28;20040;-45
2022/07/02 06:00:08;;;;;;;2.63;2.30;;;34.60;5.40;;;;;;5080266;28;20364;-46
2022/07/02 06:02:34;;;;;;;2.60;2.40;;;34.80;4.70;;;;;;5069315;28;20036;-48
2022/07/02 06:07:38;;;;;;;4.32;2.45;;;35.20;3.80;;;;;;5068980;28;20454;-45
2022/07/02 06:07:46;;;;;;;3.30;1.98;;;35.50;2.20;;;;;;5080581;28;20028;-45
2022/07/02 06:10:18;;;;;;;2.60;2.40;;;36.00;2.30;;;;;;5080660;28;20036;-44
2022/07/02 06:12:47;;;;;;;3.10;2.30;;;36.40;1.40;;;;;;5091381;28;20534;-47
2022/07/02 06:15:13;;;;;;;3.15;2.15;;;36.90;1.00;;;;;;5077615;28;20115;-44
2022/07/02 06:17:39;;;;;;;2.83;2.28;;;37.20;1.00;;;;;;5086513;28;20032;-48
2022/07/02 06:20:05;;;;;;;1.77;1.58;;;37.60;1.00;;;;;;5085359;28;20036;-46
2022/07/02 06:22:31;;;;;;;2.03;1.92;;;37.80;1.00;;;;;;5095068;28;20046;-46
2022/07/02 06:24:57;;;;;;;3.05;1.92;;;38.00;1.00;;;;;;5087934;28;20039;-45
2022/07/02 06:27:22;;;;;;;2.40;1.80;;;38.20;1.00;;;;;;5096468;28;20020;-46
2022/07/02 06:29:48;;;;;;;1.98;1.80;;;38.60;1.00;;;;;;5086543;28;20098;-45
2022/07/02 06:32:17;;;;;;;2.38;1.95;;;38.90;1.00;;;;;;5075032;28;21256;-46
2022/07/02 06:34:43;;;;;;;2.97;1.90;;;39.10;1.00;;;;;;5085240;28;20024;-46
2022/07/02 06:37:09;;;;;;;2.80;2.20;;;39.50;1.00;;;;;;5071928;28;20067;-45
2022/07/02 06:39:35;;;;;;;2.00;1.85;;;39.70;1.00;;;;;;5087254;28;20059;-47
2022/07/02 06:42:18;;;;;;;2.67;2.08;;;40.00;1.00;;;;;;5077336;28;20436;-51
2022/07/02 06:44:45;;;;;;;2.72;1.65;;;40.20;1.00;;;;;;5074644;28;20043;-49
2022/07/02 06:47:10;;;;;;;1.80;1.70;;;40.40;1.00;;;;;;5076459;28;20032;-49
2022/07/02 06:49:36;;;;;;;2.80;1.92;;;40.60;1.00;;;;;;5082154;28;20016;-50
2022/07/02 06:52:02;;;;;;;2.45;1.88;;;41.00;1.00;;;;;;5071311;28;20644;-48
2022/07/02 06:54:27;;;;;;;2.60;1.73;;;41.30;1.00;;;;;;5083823;28;20403;-47
2022/07/02 06:56:53;;;;;;;2.10;2.00;;;41.50;1.00;;;;;;5089326;28;20040;-45
2022/07/02 06:59:19;;;;;;;1.80;1.70;;;41.40;1.00;;;;;;5076370;28;20093;-50
2022/07/02 07:01:44;;;;;;;2.15;1.75;;;41.80;1.00;;;;;;5061897;28;20082;-53
2022/07/02 07:04:10;;;;;;;2.83;1.80;;;41.90;1.00;;;;;;5076112;28;20107;-47
2022/07/02 07:06:36;;;;;;;3.67;1.85;;;42.00;1.00;;;;;;5093683;28;20033;-49
2022/07/02 07:09:02;;;;;;;1.98;1.60;;;42.10;1.00;;;;;;5077488;28;20044;-47
2022/07/02 07:11:27;;;;;;;1.70;1.60;;;42.50;1.00;;;;;;5093450;28;20408;-47
2022/07/02 07:13:53;;;;;;;2.13;1.90;;;42.70;1.00;;;;;;5079332;28;20024;-49
2022/07/02 07:16:19;;;;;;;4.18;1.65;;;42.80;1.00;;;;;;5093056;28;20033;-49
2022/07/02 07:18:48;;;;;;;1.42;1.33;;;43.00;1.00;;;;;;5098213;28;20556;-51
2022/07/02 07:21:13;;;;;;;1.42;1.23;;;43.10;1.00;;;;;;5076003;28;20033;-46
2022/07/02 07:23:39;;;;;;;1.27;1.15;;;43.30;1.00;;;;;;5105819;28;20510;-45
2022/07/02 07:26:04;;;;;;;1.60;1.38;;;43.50;1.00;;;;;;5090199;28;20052;-46
2022/07/02 07:28:30;;;;;;;2.13;1.50;;;43.60;1.00;;;;;;5107367;28;20092;-46
2022/07/02 07:30:55;;;;;;;2.38;1.40;;;43.80;1.00;;;;;;5089693;28;20027;-47
2022/07/02 07:33:21;;;;;;;2.17;1.70;;;44.00;1.00;;;;;;5107087;28;20491;-44
2022/07/02 07:35:46;;;;;;;2.28;1.33;;;43.80;1.00;;;;;;5109795;28;20018;-48
2022/07/02 07:38:12;;;;;;;2.17;1.23;;;43.70;1.00;;;;;;5086305;28;20039;-44
2022/07/02 07:40:38;;;;;;;1.60;1.33;;;43.60;1.00;;;;;;5080796;28;20028;-45
2022/07/02 07:43:04;;;;;;;1.48;1.38;;;43.80;1.00;;;;;;5089268;28;20474;-44
2022/07/02 07:45:30;;;;;;;4.43;1.40;;;44.00;1.00;;;;;;5079883;28;20032;-44
2022/07/02 07:47:55;;;;;;;1.67;1.30;;;43.40;1.00;;;;;;5108404;28;20039;-44
2022/07/02 07:50:21;;;;;;;1.88;1.30;;;43.30;1.00;;;;;;5075308;28;20032;-46
2022/07/02 07:52:47;;;;;;;0.98;0.98;;;43.50;1.00;;;;;;5108213;28;20158;-49
2022/07/02 07:55:12;;;;;;;1.50;1.17;;;43.50;1.00;;;;;;5076647;28;20024;-45
2022/07/02 07:57:38;;;;;;;1.15;1.00;;;43.40;1.00;;;;;;5107802;28;20694;-44
2022/07/02 08:00:05;;;;;;;1.92;1.15;;;43.60;1.00;;;;;;5093968;28;20028;-45
2022/07/02 08:02:31;;;;;;;1.88;1.05;;;43.40;1.00;;;;;;5089094;28;20036;-49
2022/07/02 08:04:56;;;;;;;2.28;1.25;;;43.40;1.00;;;;;;5106365;28;20116;-46
2022/07/02 08:07:22;;;;;;;2.17;1.40;;;43.60;1.00;;;;;;5089451;28;20089;-47
2022/07/02 08:09:52;;;;;;;2.72;1.30;;;43.90;1.00;;;;;;5106457;28;20041;-44
2022/07/02 08:12:19;;;;;;;1.10;1.10;;;43.70;1.00;;;;;;5068823;28;20067;-44
2022/07/02 08:14:45;;;;;;;1.10;0.80;;;43.50;1.00;;;;;;5106012;28;20051;-44
2022/07/02 08:17:10;;;;;;;1.50;1.20;;;42.30;1.00;;;;;;5108004;28;20474;-44
2022/07/02 08:19:36;;;;;;;1.55;0.90;;;41.80;1.00;;;;;;5093413;28;20070;-44
2022/07/02 08:22:01;;;;;;;1.27;0.80;;;41.90;1.00;;;;;;5109114;28;20178;-44
2022/07/02 08:24:27;;;;;;;2.38;0.90;;;42.00;1.00;;;;;;5087531;28;20071;-44
2022/07/02 08:26:52;;;;;;;2.08;1.00;;;41.80;1.00;;;;;;5098823;28;20475;-43
2022/07/02 08:29:18;;;;;;;3.53;0.90;;;41.20;1.00;;;;;;5090402;28;20056;-45
2022/07/02 08:31:43;;;;;;;1.38;1.10;;;40.10;1.00;;;;;;5109317;28;20426;-48
2022/07/02 08:34:09;;;;;;;0.95;0.80;;;39.30;1.00;;;;;;5089527;28;20542;-44
2022/07/02 08:36:34;;;;;;;1.77;1.05;;;39.10;1.00;;;;;;5108914;28;20023;-46
2022/07/02 08:39:00;;;;;;;1.15;0.75;;;39.20;1.00;;;;;;5088104;28;20077;-46
2022/07/02 08:41:25;;;;;;;1.63;0.93;;;39.30;1.00;;;;;;5109954;28;20024;-47
2022/07/02 08:43:53;;;;;;;1.00;0.90;;;39.30;1.00;;;;;;5101855;28;20074;-47
2022/07/02 08:46:21;;;;;;;0.80;0.80;;;38.70;1.00;;;;;;5093167;28;20024;-47
2022/07/02 08:48:48;;;;;;;2.53;0.90;;;38.30;1.00;;;;;;5110690;28;20020;-45
2022/07/02 08:51:14;;;;;;;0.80;0.70;;;38.10;1.00;;;;;;5093185;28;20115;-49
2022/07/02 08:53:41;;;;;;;1.17;0.82;;;37.60;1.00;;;;;;5082226;28;20108;-48
2022/07/02 08:56:08;;;;;;;0.82;0.80;;;37.00;1.00;;;;;;5112561;28;20184;-46
2022/07/02 08:58:34;;;;;;;1.10;0.95;;;36.40;1.00;;;;;;5101305;28;20529;-47
2022/07/02 09:01:00;;;;;;;1.27;1.00;;;35.90;1.00;;;;;;5082142;28;20036;-44
2022/07/02 09:03:26;;;;;;;0.88;0.80;;;35.50;1.00;;;;;;5110146;28;20165;-46
2022/07/02 09:05:53;;;;;;;0.93;0.80;;;35.40;1.00;;;;;;5093009;28;20590;-51
2022/07/02 09:08:22;;;;;;;0.82;0.70;;;35.20;1.00;;;;;;5110061;28;20082;-51
2022/07/02 09:10:50;;;;;;;3.65;0.75;;;35.20;1.00;;;;;;5092814;27;20036;-48
2022/07/02 09:13:17;;;;;;;1.10;0.70;;;35.00;1.00;;;;;;5110384;28;20368;-52
2022/07/02 09:15:44;;;;;;;1.50;0.90;;;34.90;1.00;;;;;;5112901;28;20027;-48
2022/07/02 09:18:11;;;;;;;1.50;0.90;;;34.80;1.00;;;;;;5097504;28;20027;-50
2022/07/02 09:20:37;;;;;;;1.40;0.77;;;34.80;1.00;;;;;;5112722;28;20028;-47
2022/07/02 09:23:09;;;;;;;2.67;0.93;;;34.80;1.00;;;;;;5096539;28;20035;-44
2022/07/02 09:25:34;;;;;;;1.88;0.88;;;35.10;1.00;;;;;;5098696;28;20506;-45
2022/07/02 09:28:03;;;;;;;0.88;0.73;;;35.00;1.00;;;;;;5095486;28;20043;-44
2022/07/02 09:30:31;;;;;;;2.70;0.98;;;35.00;1.00;;;;;;5112710;28;20032;-46
2022/07/02 09:35:40;;;;;;;1.07;0.70;;;35.30;1.00;;;;;;5112804;28;20438;-51
2022/07/02 09:38:10;;;;;;;2.22;1.00;;;35.10;1.00;;;;;;5096539;28;20032;-47
2022/07/02 09:40:56;;;;;;;0.88;0.77;;;34.80;1.00;;;;;;5112442;28;20019;-45
2022/07/02 09:43:35;;;;;;;0.68;0.68;;;34.50;1.00;;;;;;5086376;28;20048;-46
2022/07/02 09:46:01;;;;;;;1.02;0.70;;;34.30;1.00;;;;;;5071908;28;20040;-47
2022/07/02 09:48:26;;;;;;;1.75;0.90;;;34.00;1.00;;;;;;5108872;28;20058;-54
2022/07/02 09:50:53;;;;;;;1.05;0.63;;;33.80;1.00;;;;;;5093215;28;20733;-52
2022/07/02 09:53:18;;;;;;;2.97;0.88;;;33.70;1.00;;;;;;5109267;28;20015;-54
2022/07/02 09:55:49;;;;;;;1.05;0.70;;;33.60;1.00;;;;;;5112033;28;20026;-56
2022/07/02 09:58:23;;;;;;;0.93;0.75;;;33.40;1.00;;;;;;5095953;28;20100;-50
2022/07/02 10:00:49;;;;;;;1.90;1.00;;;33.10;1.00;;;;;;5092521;28;20028;-55
2022/07/02 10:03:14;;;;;;;1.35;0.68;;;32.70;1.00;;;;;;5109123;28;20734;-58
2022/07/02 10:05:44;;;;;;;1.95;0.82;;;32.50;1.00;;;;;;5111634;28;20391;-54
2022/07/02 10:08:10;;;;;;;0.82;0.80;;;32.20;1.00;;;;;;5094860;28;20507;-52
2022/07/02 10:10:38;;;;;;;1.33;0.70;;;31.90;1.00;;;;;;5111971;28;20028;-51
2022/07/02 10:13:05;;;;;;;1.02;0.80;;;31.60;1.00;;;;;;5094345;28;20028;-53
2022/07/02 10:15:32;;;;;;;1.38;0.90;;;31.40;1.00;;;;;;5111744;28;20077;-52
2022/07/02 10:18:00;;;;;;;0.90;0.80;;;31.30;1.00;;;;;;5093490;28;20020;-52
2022/07/02 10:20:28;;;;;;;0.70;0.70;;;31.10;1.00;;;;;;5111666;28;20039;-51
2022/07/02 10:22:56;;;;;;;1.40;0.82;;;30.80;1.00;;;;;;5092229;28;20031;-52
2022/07/02 10:25:21;;;;;;;1.45;0.60;;;30.60;1.00;;;;;;5099451;28;20746;-55
2022/07/02 10:27:47;;;;;;;2.42;1.02;;;30.50;1.00;;;;;;5093091;28;20050;-54
2022/07/02 10:30:20;;;;;;;1.65;0.95;;;30.30;1.00;;;;;;5111632;28;20522;-52
2022/07/02 10:33:11;;;;;;;2.25;0.90;;;30.30;1.00;;;;;;5073483;28;20039;-53
2022/07/02 10:35:38;;;;;;;1.52;0.68;;;30.30;1.00;;;;;;5111426;28;20052;-54
2022/07/02 10:38:06;;;;;;;0.73;0.73;;;30.20;1.00;;;;;;5093524;28;20019;-55
2022/07/02 10:40:31;;;;;;;1.00;0.50;;;30.10;1.00;;;;;;5111231;28;20024;-53
2022/07/02 10:42:59;;;;;;;0.93;0.70;;;30.00;1.00;;;;;;5093018;28;20054;-55
2022/07/02 10:45:26;;;;;;;0.85;0.60;;;29.90;1.00;;;;;;5111306;28;20031;-51
2022/07/02 10:48:01;;;;;;;1.70;0.63;;;29.70;1.00;;;;;;5092099;28;20084;-56
2022/07/02 10:50:37;;;;;;;3.60;1.35;;;29.70;1.00;;;;;;5111161;28;20047;-54
2022/07/02 10:53:07;;;;;;;1.77;0.80;;;29.70;1.00;;;;;;5093525;28;20034;-53
2022/07/02 10:55:32;;;;;;;1.17;0.77;;;29.60;1.00;;;;;;5111025;28;20028;-55
2022/07/02 10:57:59;;;;;;;1.38;1.02;;;29.50;1.00;;;;;;5093007;28;20019;-54
2022/07/02 11:00:27;;;;;;;1.90;0.95;;;29.40;1.00;;;;;;5094364;28;20028;-52
2022/07/02 11:02:53;;;;;;;2.20;1.08;;;29.20;1.00;;;;;;5108234;28;20036;-52
2022/07/02 11:05:18;;;;;;;1.88;1.00;;;29.00;1.00;;;;;;5109904;28;20491;-53
2022/07/02 11:07:44;;;;;;;1.92;0.93;;;28.70;1.00;;;;;;5090826;28;20100;-55
2022/07/02 11:10:10;;;;;;;0.77;0.70;;;28.30;1.00;;;;;;5110471;28;20028;-55
2022/07/02 11:12:58;;;;;;;1.20;0.68;;;28.20;1.00;;;;;;5086054;28;20061;-54
2022/07/02 11:15:49;;;;;;;0.63;0.60;;;28.20;1.00;;;;;;5072051;28;20021;-56
2022/07/02 11:18:15;;;;;;;0.80;0.70;;;28.30;1.00;;;;;;5077093;28;20031;-55
2022/07/02 11:20:41;;;;;;;0.80;0.80;;;28.40;1.00;;;;;;5072442;28;20107;-54
2022/07/02 11:23:08;;;;;;;2.28;0.60;;;28.50;1.00;;;;;;5090283;28;20043;-55
2022/07/02 11:25:33;;;;;;;0.77;0.55;;;28.60;1.00;;;;;;5095157;28;20028;-54
2022/07/02 11:28:00;;;;;;;1.67;0.90;;;28.70;1.00;;;;;;5091032;28;20054;-51
2022/07/02 11:30:28;;;;;;;1.25;0.57;;;28.60;1.00;;;;;;5109388;28;20066;-50
2022/07/02 11:32:54;;;;;;;1.50;0.65;;;28.70;1.00;;;;;;5092296;28;20403;-53
2022/07/02 11:35:20;;;;;;;1.48;0.50;;;28.60;1.00;;;;;;5110386;28;20031;-53
2022/07/02 11:37:45;;;;;;;0.73;0.55;;;28.60;1.00;;;;;;5090942;28;20035;-51
2022/07/02 11:40:22;;;;;;;1.95;0.93;;;28.70;1.00;;;;;;5108750;28;20024;-53
2022/07/02 11:42:48;;;;;;;1.33;0.90;;;28.10;1.00;;;;;;5072977;28;20416;-50
2022/07/02 11:45:14;;;;;;;0.93;0.65;;;27.90;1.00;;;;;;5110022;28;20020;-54
2022/07/02 11:47:47;;;;;;;0.82;0.70;;;27.70;1.00;;;;;;5089852;28;20031;-48
2022/07/02 11:50:13;;;;;;;3.60;0.68;;;27.80;1.00;;;;;;5110056;27;20016;-52
2022/07/02 11:52:40;;;;;;;0.60;0.60;;;27.90;1.00;;;;;;5089529;28;20090;-53
2022/07/02 11:55:06;;;;;;;1.35;0.60;;;27.80;1.00;;;;;;5109852;28;20031;-55
2022/07/02 11:57:34;;;;;;;1.55;1.05;;;27.80;1.00;;;;;;5088497;28;20028;-55
2022/07/02 12:00:00;;;;;;;1.27;0.75;;;27.70;1.00;;;;;;5097524;28;20507;-55
2022/07/02 12:02:36;;;;;;;0.70;0.70;;;27.70;1.00;;;;;;5089528;28;20024;-50
2022/07/02 12:05:13;;;;;;;1.60;0.70;;;27.40;1.00;;;;;;5069101;28;20040;-53
2022/07/02 12:07:42;;;;;;;1.65;0.80;;;27.40;1.00;;;;;;5070468;28;20029;-55
2022/07/02 12:10:09;;;;;;;1.48;0.80;;;27.20;1.00;;;;;;5109677;28;20076;-53
2022/07/02 12:12:34;;;;;;;2.28;0.50;;;27.30;1.00;;;;;;5088753;28;20032;-53
2022/07/02 12:15:01;;;;;;;1.35;0.90;;;27.30;1.00;;;;;;5109470;28;20035;-48
2022/07/02 12:17:28;;;;;;;0.60;0.60;;;27.10;1.00;;;;;;5086237;28;20036;-55
2022/07/02 12:19:53;;;;;;;4.30;1.25;;;27.00;1.00;;;;;;5089251;28;20024;-51
2022/07/02 12:22:28;;;;;;;2.45;1.15;;;27.10;1.00;;;;;;5108767;28;20514;-51
2022/07/02 12:24:53;;;;;;;2.60;1.35;;;26.80;1.00;;;;;;5101164;28;20036;-52
2022/07/02 12:27:23;;;;;;;1.98;1.20;;;26.60;1.00;;;;;;5094686;28;20442;-56
2022/07/02 12:30:04;;;;;;;1.48;1.02;;;26.50;1.00;;;;;;5067096;28;20443;-54
2022/07/02 12:32:32;;;;;;;1.30;0.98;;;26.50;1.00;;;;;;5067843;28;20032;-52
2022/07/02 12:35:03;;;;;;;1.08;0.60;;;26.50;1.00;;;;;;5109510;28;20066;-54
2022/07/02 12:37:34;;;;;;;0.73;0.60;;;26.60;1.00;;;;;;5067314;28;20466;-53
2022/07/02 12:40:14;;;;;;;1.20;0.80;;;26.60;1.00;;;;;;5109252;28;20032;-56
2022/07/02 12:43:01;;;;;;;1.23;1.05;;;26.50;1.00;;;;;;5088323;28;20110;-51
2022/07/02 12:45:34;;;;;;;1.95;1.00;;;26.50;1.00;;;;;;5109288;28;20024;-55
2022/07/02 12:48:08;;;;;;;0.73;0.70;;;26.70;1.00;;;;;;5091251;28;20020;-50
2022/07/02 12:50:36;;;;;;;0.80;0.80;;;26.80;1.00;;;;;;5109273;28;20080;-52
2022/07/02 12:53:05;;;;;;;1.75;0.80;;;27.00;1.00;;;;;;5091913;28;20114;-54
2022/07/02 12:55:36;;;;;;;1.92;0.90;;;27.00;1.00;;;;;;5109172;28;20042;-53
2022/07/02 12:58:11;;;;;;;0.95;0.73;;;27.10;1.00;;;;;;5091617;28;20020;-55